Metar z połowy godziny Komunikat METAR ze strony awiacja.imgw.pl Metar G30 EPDE METAR EPDE 170900Z 09010KT 9999 FEW040 SCT100 24/16 Q1019 RMK 243 059 3/2=